createdAt,value
2022-09-13T00:02:12.372Z,6.95
2022-09-13T00:04:36.045Z,7.50
2022-09-13T00:07:01.128Z,7.40
2022-09-13T00:09:24.803Z,6.65
2022-09-13T00:11:48.521Z,6.85
2022-09-13T00:14:12.195Z,6.95
2022-09-13T00:16:35.960Z,6.80
2022-09-13T00:19:01.274Z,7.22
2022-09-13T00:21:26.120Z,6.43
2022-09-13T00:23:53.702Z,7.35
2022-09-13T00:26:20.057Z,7.47
2022-09-13T00:28:45.563Z,7.22
2022-09-13T00:31:11.006Z,6.85
2022-09-13T00:33:35.268Z,6.95
2022-09-13T00:35:59.178Z,6.40
2022-09-13T00:38:22.850Z,6.40
2022-09-13T00:40:47.910Z,7.60
2022-09-13T00:43:20.575Z,7.22
2022-09-13T00:45:45.068Z,6.13
2022-09-13T00:48:16.916Z,6.25
2022-09-13T00:50:44.522Z,6.18
2022-09-13T00:53:13.696Z,6.22
2022-09-13T00:55:44.340Z,6.13
2022-09-13T00:58:16.070Z,6.93
2022-09-13T01:00:41.108Z,6.07
2022-09-13T01:03:09.229Z,7.25
2022-09-13T01:05:41.528Z,6.55
2022-09-13T01:08:22.987Z,6.95
2022-09-13T01:10:51.086Z,7.10
2022-09-13T01:13:20.141Z,7.55
2022-09-13T01:15:44.240Z,7.35
2022-09-13T01:18:09.166Z,7.38
2022-09-13T01:21:12.855Z,6.43
2022-09-13T01:24:17.167Z,6.60
2022-09-13T01:27:15.805Z,6.32
2022-09-13T01:30:20.928Z,7.03
2022-09-13T01:33:13.548Z,6.80
2022-09-13T01:35:51.905Z,6.65
2022-09-13T01:38:31.967Z,7.47
2022-09-13T01:41:09.213Z,6.82
2022-09-13T01:43:45.643Z,7.28
2022-09-13T01:46:18.715Z,6.18
2022-09-13T01:48:57.989Z,7.60
2022-09-13T01:51:30.672Z,6.90
2022-09-13T01:54:11.930Z,6.65
2022-09-13T01:56:44.141Z,6.18
2022-09-13T01:59:20.054Z,6.63
2022-09-13T02:01:52.385Z,6.97
2022-09-13T02:04:19.918Z,6.35
2022-09-13T02:06:51.809Z,7.47
2022-09-13T02:09:21.554Z,6.78
2022-09-13T02:11:49.994Z,6.15
2022-09-13T02:14:18.330Z,5.80
2022-09-13T02:16:49.421Z,5.78
2022-09-13T02:19:19.121Z,6.95
2022-09-13T02:21:47.953Z,7.07
2022-09-13T02:24:17.064Z,7.00
2022-09-13T02:26:45.647Z,7.05
2022-09-13T02:29:13.866Z,6.82
2022-09-13T02:31:44.596Z,6.22
2022-09-13T02:34:16.665Z,7.25
2022-09-13T02:36:43.094Z,7.03
2022-09-13T02:39:13.572Z,6.00
2022-09-13T02:41:49.384Z,6.47
2022-09-13T02:44:17.650Z,6.28
2022-09-13T02:47:01.556Z,6.88
2022-09-13T02:49:33.183Z,6.50
2022-09-13T02:52:02.592Z,6.25
2022-09-13T02:54:34.383Z,6.47
2022-09-13T02:57:04.390Z,6.38
2022-09-13T02:59:28.449Z,6.72
2022-09-13T03:01:59.639Z,7.03
2022-09-13T03:04:23.455Z,6.80
2022-09-13T03:06:50.513Z,7.45
2022-09-13T03:09:14.497Z,6.28
2022-09-13T03:11:57.171Z,6.15
2022-09-13T03:14:34.430Z,6.18
2022-09-13T03:17:16.648Z,6.20
2022-09-13T03:20:09.750Z,6.90
2022-09-13T03:23:16.587Z,7.40
2022-09-13T03:26:02.355Z,6.55
2022-09-13T03:28:36.949Z,7.60
2022-09-13T03:31:09.933Z,6.90
2022-09-13T03:33:45.682Z,6.97
2022-09-13T03:36:16.520Z,6.93
2022-09-13T03:38:47.128Z,6.90
2022-09-13T03:41:16.569Z,6.88
2022-09-13T03:43:45.529Z,7.20
2022-09-13T03:46:13.684Z,7.30
2022-09-13T03:48:40.526Z,6.45
2022-09-13T03:51:04.350Z,7.10
2022-09-13T03:53:30.656Z,7.03
2022-09-13T03:55:55.802Z,7.53
2022-09-13T03:58:21.792Z,7.43
2022-09-13T04:00:46.222Z,6.88
2022-09-13T04:03:10.186Z,7.00
2022-09-13T04:05:34.596Z,9.00
2022-09-13T04:07:58.378Z,7.95
2022-09-13T04:10:24.281Z,7.80
2022-09-13T04:12:49.515Z,7.32
2022-09-13T04:15:13.201Z,7.22
2022-09-13T04:17:37.100Z,7.60
2022-09-13T04:20:00.749Z,7.78
2022-09-13T04:22:24.464Z,8.20
2022-09-13T04:24:48.238Z,8.45
2022-09-13T04:27:12.378Z,8.63
2022-09-13T04:29:37.390Z,9.90
2022-09-13T04:32:01.879Z,9.68
2022-09-13T04:34:25.641Z,9.75
2022-09-13T04:36:49.404Z,9.52
2022-09-13T04:39:14.102Z,9.55
2022-09-13T04:41:37.687Z,9.52
2022-09-13T04:44:01.378Z,10.23
2022-09-13T04:46:26.355Z,10.27
2022-09-13T04:48:53.501Z,10.32
2022-09-13T04:51:17.594Z,9.63
2022-09-13T04:53:41.147Z,10.02
2022-09-13T04:56:06.406Z,9.40
2022-09-13T04:58:30.092Z,10.20
2022-09-13T05:00:56.781Z,10.13
2022-09-13T05:03:21.806Z,9.75
2022-09-13T05:05:45.408Z,9.68
2022-09-13T05:08:08.954Z,10.15
2022-09-13T05:10:32.514Z,9.93
2022-09-13T05:12:56.069Z,9.27
2022-09-13T05:15:19.691Z,9.60
2022-09-13T05:17:43.312Z,8.68
2022-09-13T05:20:09.833Z,8.68
2022-09-13T05:22:33.514Z,8.77
2022-09-13T05:24:57.059Z,9.20
2022-09-13T05:27:20.609Z,9.70
2022-09-13T05:29:44.220Z,10.65
2022-09-13T05:32:07.776Z,9.70
2022-09-13T05:34:31.439Z,10.20
2022-09-13T05:36:56.439Z,9.85
2022-09-13T05:39:36.462Z,10.57
2022-09-13T05:42:06.025Z,9.85
2022-09-13T05:44:29.518Z,10.32
2022-09-13T05:46:53.093Z,9.48
2022-09-13T05:49:17.328Z,9.70
2022-09-13T05:51:41.267Z,9.65
2022-09-13T05:54:06.362Z,9.40
2022-09-13T05:56:32.179Z,9.45
2022-09-13T05:58:56.451Z,9.77
2022-09-13T06:01:23.168Z,9.52
2022-09-13T06:03:49.451Z,9.90
2022-09-13T06:06:13.153Z,10.70
2022-09-13T06:08:37.644Z,10.90
2022-09-13T06:11:05.566Z,11.20
2022-09-13T06:13:29.981Z,12.27
2022-09-13T06:15:54.418Z,10.95
2022-09-13T06:18:18.097Z,11.80
2022-09-13T06:20:41.655Z,12.57
2022-09-13T06:23:05.209Z,11.75
2022-09-13T06:25:28.795Z,11.23
2022-09-13T06:27:53.816Z,12.18
2022-09-13T06:30:17.514Z,12.55
2022-09-13T06:32:41.049Z,12.02
2022-09-13T06:35:04.705Z,12.57
2022-09-13T06:37:28.330Z,13.35
2022-09-13T06:39:51.895Z,11.57
2022-09-13T06:42:15.530Z,11.75
2022-09-13T06:44:40.762Z,12.98
2022-09-13T06:47:04.260Z,12.45
2022-09-13T06:49:29.278Z,11.95
2022-09-13T06:51:52.837Z,13.05
2022-09-13T06:54:16.411Z,13.05
2022-09-13T06:56:40.534Z,13.43
2022-09-13T06:59:07.473Z,12.48
2022-09-13T07:01:35.050Z,12.73
2022-09-13T07:04:03.955Z,13.55
2022-09-13T07:06:29.742Z,13.23
2022-09-13T07:08:54.900Z,13.07
2022-09-13T07:11:20.951Z,12.18
2022-09-13T07:13:44.599Z,13.40
2022-09-13T07:16:10.390Z,13.38
2022-09-13T07:18:35.610Z,12.65
2022-09-13T07:21:04.554Z,12.30
2022-09-13T07:23:28.103Z,12.98
2022-09-13T07:26:01.878Z,12.82
2022-09-13T07:28:27.481Z,12.52
2022-09-13T07:30:51.412Z,12.63
2022-09-13T07:33:15.069Z,12.80
2022-09-13T07:35:40.011Z,12.30
2022-09-13T07:38:03.568Z,12.68
2022-09-13T07:40:27.103Z,12.60
2022-09-13T07:42:50.714Z,12.52
2022-09-13T07:45:15.245Z,11.80
2022-09-13T07:47:38.813Z,11.20
2022-09-13T07:50:02.323Z,11.30
2022-09-13T07:52:27.297Z,11.68
2022-09-13T07:54:50.801Z,11.40
2022-09-13T07:57:14.413Z,11.48
2022-09-13T07:59:38.849Z,11.43
2022-09-13T08:02:02.566Z,11.63
2022-09-13T08:04:27.304Z,11.55
2022-09-13T08:06:51.065Z,11.63
2022-09-13T08:09:16.768Z,11.10
2022-09-13T08:11:41.933Z,12.02
2022-09-13T08:14:07.656Z,11.02
2022-09-13T08:16:31.870Z,10.88
2022-09-13T08:18:58.118Z,11.18
2022-09-13T08:21:22.090Z,10.75
2022-09-13T08:23:46.299Z,10.73
2022-09-13T08:26:11.470Z,11.15
2022-09-13T08:28:36.031Z,11.20
2022-09-13T08:31:06.254Z,11.32
2022-09-13T08:33:29.840Z,10.43
2022-09-13T08:35:55.604Z,10.68
2022-09-13T08:38:19.504Z,10.27
2022-09-13T08:40:50.643Z,10.50
2022-09-13T08:43:25.845Z,10.30
2022-09-13T08:45:52.182Z,9.85
2022-09-13T08:48:18.741Z,10.10
2022-09-13T08:50:45.098Z,9.40
2022-09-13T08:53:20.698Z,9.15
2022-09-13T08:55:55.290Z,9.52
2022-09-13T08:58:41.463Z,9.57
2022-09-13T09:01:10.266Z,8.95
2022-09-13T09:03:44.237Z,9.93
2022-09-13T09:06:15.961Z,9.02
2022-09-13T09:08:46.694Z,9.30
2022-09-13T09:11:19.861Z,8.18
2022-09-13T09:13:52.382Z,8.65
2022-09-13T09:16:34.973Z,8.38
2022-09-13T09:19:07.963Z,8.07
2022-09-13T09:21:33.533Z,8.68
2022-09-13T09:23:57.855Z,8.23
2022-09-13T09:26:23.873Z,8.25
2022-09-13T09:28:52.382Z,8.20
2022-09-13T09:31:23.725Z,8.45
2022-09-13T09:34:09.615Z,7.30
2022-09-13T09:36:41.079Z,7.68
2022-09-13T09:39:06.593Z,7.20
2022-09-13T09:41:33.350Z,7.82
2022-09-13T09:44:05.962Z,7.32
2022-09-13T09:46:35.482Z,7.82
2022-09-13T09:49:30.251Z,7.53
2022-09-13T09:51:56.530Z,7.43
2022-09-13T09:54:20.721Z,6.80
2022-09-13T09:56:55.310Z,7.50
2022-09-13T09:59:31.283Z,7.35
2022-09-13T10:01:58.088Z,7.97
2022-09-13T10:04:23.645Z,7.53
2022-09-13T10:06:47.797Z,7.93
2022-09-13T10:09:19.743Z,7.30
2022-09-13T10:11:48.042Z,7.25
2022-09-13T10:14:38.231Z,7.25
2022-09-13T10:17:11.143Z,8.35
2022-09-13T10:19:35.024Z,7.05
2022-09-13T10:22:05.792Z,6.65
2022-09-13T10:24:29.988Z,7.18
2022-09-13T10:26:53.555Z,7.55
2022-09-13T10:29:18.919Z,7.00
2022-09-13T10:31:50.046Z,6.70
2022-09-13T10:34:20.682Z,6.80
2022-09-13T10:36:53.938Z,8.05
2022-09-13T10:39:21.443Z,7.25
2022-09-13T10:41:52.717Z,7.18
2022-09-13T10:44:33.027Z,7.00
2022-09-13T10:47:01.185Z,6.75
2022-09-13T10:49:45.813Z,6.88
2022-09-13T10:52:35.008Z,6.88
2022-09-13T10:55:37.637Z,7.07
2022-09-13T10:58:21.703Z,7.55
2022-09-13T11:01:14.965Z,6.90
2022-09-13T11:04:00.837Z,7.32
2022-09-13T11:06:32.463Z,7.45
2022-09-13T11:09:02.889Z,7.28
2022-09-13T11:11:35.189Z,7.00
2022-09-13T11:14:31.418Z,7.47
2022-09-13T11:17:07.557Z,7.30
2022-09-13T11:20:03.815Z,7.43
2022-09-13T11:22:53.025Z,7.35
2022-09-13T11:25:40.286Z,7.28
2022-09-13T11:28:15.956Z,7.60
2022-09-13T11:31:06.188Z,7.63
2022-09-13T11:33:43.138Z,7.80
2022-09-13T11:36:41.418Z,7.15
2022-09-13T11:39:17.565Z,8.05
2022-09-13T11:41:52.791Z,8.50
2022-09-13T11:44:49.151Z,8.52
2022-09-13T11:47:24.648Z,9.13
2022-09-13T11:50:26.697Z,8.27
2022-09-13T11:53:07.539Z,9.30
2022-09-13T11:55:35.452Z,9.52
2022-09-13T11:58:04.293Z,8.80
2022-09-13T12:00:34.226Z,9.55
2022-09-13T12:03:07.879Z,9.25
2022-09-13T12:05:36.418Z,9.80
2022-09-13T12:08:06.424Z,9.77
2022-09-13T12:10:37.309Z,9.15
2022-09-13T12:13:04.309Z,9.35
2022-09-13T12:15:37.923Z,9.38
2022-09-13T12:18:08.145Z,9.00
2022-09-13T12:20:36.456Z,9.52
2022-09-13T12:23:05.011Z,9.07
2022-09-13T12:25:38.932Z,8.75
2022-09-13T12:28:14.156Z,9.07
2022-09-13T12:30:47.271Z,9.00
2022-09-13T12:33:15.326Z,7.95
2022-09-13T12:35:52.202Z,7.53
2022-09-13T12:38:44.405Z,7.57
2022-09-13T12:41:26.561Z,7.22
2022-09-13T12:44:24.380Z,5.25
2022-09-13T12:47:18.987Z,4.75
2022-09-13T12:50:01.759Z,4.93
2022-09-13T12:52:41.111Z,3.85
2022-09-13T12:56:03.165Z,3.60
2022-09-13T12:58:57.238Z,3.58
2022-09-13T13:01:23.493Z,3.25
2022-09-13T13:03:53.939Z,3.05
2022-09-13T13:06:33.458Z,3.58
2022-09-13T13:08:59.876Z,3.88
2022-09-13T13:11:28.325Z,3.20
2022-09-13T13:13:59.126Z,3.38
2022-09-13T13:16:28.879Z,2.97
2022-09-13T13:18:54.015Z,2.90
2022-09-13T13:21:38.099Z,2.70
2022-09-13T13:24:40.417Z,3.05
2022-09-13T13:27:48.647Z,3.03
2022-09-13T13:30:53.701Z,2.78
2022-09-13T13:33:24.612Z,3.20
2022-09-13T13:35:48.925Z,3.42
2022-09-13T13:38:49.419Z,3.00
2022-09-13T13:41:55.207Z,2.97
2022-09-13T13:45:07.465Z,3.35
2022-09-13T13:48:16.362Z,3.50
2022-09-13T13:51:23.049Z,3.35
2022-09-13T13:53:51.753Z,3.70
2022-09-13T13:56:32.754Z,3.70
2022-09-13T13:59:00.512Z,3.60
2022-09-13T14:01:29.914Z,3.50
2022-09-13T14:04:56.022Z,3.20
2022-09-13T14:08:25.160Z,3.20
2022-09-13T14:11:00.965Z,3.30
2022-09-13T14:13:43.861Z,3.30
2022-09-13T14:16:19.173Z,3.38
2022-09-13T14:19:28.711Z,3.00
2022-09-13T14:22:15.682Z,3.47
2022-09-13T14:24:43.173Z,3.30
2022-09-13T14:27:09.492Z,3.08
2022-09-13T14:29:33.479Z,2.90
2022-09-13T14:32:05.443Z,3.42
2022-09-13T14:34:33.436Z,3.00
2022-09-13T14:37:00.590Z,2.95
2022-09-13T14:39:24.820Z,2.88
2022-09-13T14:41:48.605Z,2.80
2022-09-13T14:44:28.433Z,2.78
2022-09-13T14:47:03.182Z,2.75
2022-09-13T14:49:34.810Z,2.80
2022-09-13T14:52:03.529Z,2.78
2022-09-13T14:54:36.691Z,3.10
2022-09-13T14:57:03.214Z,2.50
2022-09-13T14:59:31.783Z,2.63
2022-09-13T15:01:59.605Z,2.53
2022-09-13T15:04:26.112Z,2.90
2022-09-13T15:07:09.357Z,2.53
2022-09-13T15:09:34.102Z,2.63
2022-09-13T15:12:01.148Z,2.63
2022-09-13T15:14:31.108Z,2.70
2022-09-13T15:17:01.506Z,2.80
2022-09-13T15:19:37.965Z,2.50
2022-09-13T15:22:14.791Z,3.08
2022-09-13T15:24:39.370Z,3.00
2022-09-13T15:27:06.082Z,3.00
2022-09-13T15:29:34.734Z,3.42
2022-09-13T15:32:01.104Z,3.10
2022-09-13T15:34:27.601Z,3.50
2022-09-13T15:37:07.709Z,3.40
2022-09-13T15:39:45.496Z,3.42
2022-09-13T15:42:09.287Z,3.30
2022-09-13T15:44:32.916Z,3.85
2022-09-13T15:46:59.603Z,3.72
2022-09-13T15:49:26.534Z,3.90
2022-09-13T15:51:58.079Z,3.72
2022-09-13T15:54:22.860Z,4.40
2022-09-13T15:56:51.409Z,4.00
2022-09-13T15:59:16.170Z,4.00
2022-09-13T16:01:39.901Z,3.83
2022-09-13T16:04:06.201Z,4.10
2022-09-13T16:06:29.926Z,4.00
2022-09-13T16:08:53.501Z,3.70
2022-09-13T16:11:17.119Z,3.80
2022-09-13T16:13:42.200Z,4.20
2022-09-13T16:16:06.719Z,3.83
2022-09-13T16:18:30.654Z,3.67
2022-09-13T16:20:54.310Z,4.00
2022-09-13T16:23:17.965Z,3.80
2022-09-13T16:25:41.557Z,3.97
2022-09-13T16:28:05.572Z,3.60
2022-09-13T16:30:31.721Z,3.65
2022-09-13T16:32:55.372Z,4.03
2022-09-13T16:35:19.274Z,3.63
2022-09-13T16:37:44.505Z,3.80
2022-09-13T16:40:10.238Z,3.83
2022-09-13T16:42:34.139Z,4.18
2022-09-13T16:44:57.660Z,3.65
2022-09-13T16:47:22.791Z,4.47
2022-09-13T16:49:46.341Z,4.40
2022-09-13T16:52:10.327Z,4.80
2022-09-13T16:54:35.198Z,3.78
2022-09-13T16:56:59.265Z,4.50
2022-09-13T16:59:22.772Z,4.50
2022-09-13T17:01:46.611Z,4.18
2022-09-13T17:04:11.980Z,4.30
2022-09-13T17:06:35.827Z,4.78
2022-09-13T17:09:02.546Z,4.43
2022-09-13T17:11:28.740Z,4.50
2022-09-13T17:13:52.601Z,4.50
2022-09-13T17:16:27.607Z,5.38
2022-09-13T17:18:51.754Z,5.00
2022-09-13T17:21:16.999Z,4.53
2022-09-13T17:23:40.729Z,4.97
2022-09-13T17:26:04.263Z,4.88
2022-09-13T17:28:27.836Z,4.97
2022-09-13T17:30:51.427Z,5.20
2022-09-13T17:33:15.515Z,5.43
2022-09-13T17:35:39.250Z,5.20
2022-09-13T17:38:05.335Z,5.10
2022-09-13T17:40:29.629Z,4.78
2022-09-13T17:42:53.259Z,5.40
2022-09-13T17:45:17.037Z,4.93
2022-09-13T17:47:40.619Z,5.00
2022-09-13T17:50:04.489Z,4.88
2022-09-13T17:52:31.458Z,5.07
2022-09-13T17:54:59.503Z,4.97
2022-09-13T17:57:25.063Z,4.70
2022-09-13T17:59:49.587Z,4.97
2022-09-13T18:02:13.221Z,4.78
2022-09-13T18:04:36.820Z,4.85
2022-09-13T18:07:00.851Z,4.88
2022-09-13T18:09:26.986Z,5.00
2022-09-13T18:11:52.595Z,4.78
2022-09-13T18:14:19.037Z,5.15
2022-09-13T18:16:43.534Z,5.03
2022-09-13T18:19:07.338Z,5.30
2022-09-13T18:21:31.264Z,4.55
2022-09-13T18:23:58.733Z,5.18
2022-09-13T18:26:25.011Z,5.13
2022-09-13T18:28:55.994Z,5.00
2022-09-13T18:31:20.322Z,5.25
2022-09-13T18:33:44.649Z,4.78
2022-09-13T18:36:12.176Z,4.85
2022-09-13T18:38:38.856Z,5.28
2022-09-13T18:41:05.230Z,5.80
2022-09-13T18:43:28.878Z,6.00
2022-09-13T18:45:57.891Z,4.97
2022-09-13T18:48:21.459Z,5.05
2022-09-13T18:50:45.008Z,4.90
2022-09-13T18:53:08.563Z,5.13
2022-09-13T18:55:32.113Z,5.30
2022-09-13T18:57:55.648Z,6.03
2022-09-13T19:00:19.780Z,5.40
2022-09-13T19:03:08.475Z,5.10
2022-09-13T19:05:29.876Z,4.80
2022-09-13T19:07:53.462Z,5.05
2022-09-13T19:10:17.087Z,5.43
2022-09-13T19:12:40.672Z,4.93
2022-09-13T19:15:04.287Z,4.70
2022-09-13T19:17:27.900Z,4.90
2022-09-13T19:19:52.860Z,5.80
2022-09-13T19:22:16.362Z,4.75
2022-09-13T19:24:39.999Z,5.18
2022-09-13T19:27:03.722Z,5.00
2022-09-13T19:29:27.392Z,5.93
2022-09-13T19:31:52.740Z,5.30
2022-09-13T19:34:17.874Z,5.07
2022-09-13T19:36:44.296Z,5.35
2022-09-13T19:39:09.127Z,5.82
2022-09-13T19:41:33.306Z,7.30
2022-09-13T19:44:00.183Z,6.55
2022-09-13T19:46:27.703Z,6.45
2022-09-13T19:48:53.007Z,6.18
2022-09-13T19:51:18.854Z,7.00
2022-09-13T19:53:56.814Z,7.45
2022-09-13T19:56:22.789Z,7.00
2022-09-13T19:58:46.998Z,6.63
2022-09-13T20:01:16.072Z,6.90
2022-09-13T20:03:40.081Z,8.02
2022-09-13T20:06:05.398Z,6.85
2022-09-13T20:08:29.195Z,7.15
2022-09-13T20:10:54.578Z,7.03
2022-09-13T20:13:18.186Z,8.13
2022-09-13T20:15:41.776Z,7.05
2022-09-13T20:18:06.580Z,8.00
2022-09-13T20:20:31.405Z,7.55
2022-09-13T20:22:55.002Z,6.93
2022-09-13T20:25:19.434Z,8.48
2022-09-13T20:27:44.364Z,7.55
2022-09-13T20:30:11.384Z,7.15
2022-09-13T20:32:35.763Z,7.32
2022-09-13T20:34:59.346Z,7.55
2022-09-13T20:37:23.469Z,6.85
2022-09-13T20:39:48.820Z,7.05
2022-09-13T20:42:12.647Z,6.65
2022-09-13T20:44:37.839Z,6.15
2022-09-13T20:47:01.448Z,6.20
2022-09-13T20:49:25.768Z,6.05
2022-09-13T20:51:50.022Z,6.22
2022-09-13T20:54:14.423Z,6.75
2022-09-13T20:56:38.913Z,6.78
2022-09-13T20:59:03.008Z,6.45
2022-09-13T21:01:31.557Z,6.45
2022-09-13T21:03:56.734Z,6.22
2022-09-13T21:06:22.586Z,6.60
2022-09-13T21:08:49.490Z,5.20
2022-09-13T21:11:16.165Z,5.65
2022-09-13T21:13:42.001Z,5.60
2022-09-13T21:16:06.948Z,5.40
2022-09-13T21:18:32.794Z,5.00
2022-09-13T21:20:57.109Z,5.32
2022-09-13T21:23:20.675Z,4.90
2022-09-13T21:25:44.306Z,4.88
2022-09-13T21:28:07.882Z,4.70
2022-09-13T21:30:31.414Z,4.47
2022-09-13T21:32:55.048Z,5.10
2022-09-13T21:35:20.707Z,5.00
2022-09-13T21:37:44.263Z,5.30
2022-09-13T21:40:09.397Z,5.25
2022-09-13T21:42:33.135Z,5.55
2022-09-13T21:44:58.376Z,4.82
2022-09-13T21:47:21.987Z,5.47
2022-09-13T21:49:45.528Z,5.00
2022-09-13T21:52:10.665Z,5.88
2022-09-13T21:54:34.200Z,5.78
2022-09-13T21:56:58.187Z,6.47
2022-09-13T21:59:23.663Z,5.60
2022-09-13T22:01:50.465Z,5.82
2022-09-13T22:04:18.014Z,7.00
2022-09-13T22:06:41.615Z,6.43
2022-09-13T22:09:10.676Z,7.28
2022-09-13T22:11:39.241Z,6.35
2022-09-13T22:14:03.195Z,6.85
2022-09-13T22:16:28.842Z,5.10
2022-09-13T22:18:55.537Z,5.97
2022-09-13T22:21:24.680Z,4.95
2022-09-13T22:23:49.082Z,5.18
2022-09-13T22:26:19.744Z,5.13
2022-09-13T22:28:43.823Z,5.32
2022-09-13T22:31:09.954Z,4.63
2022-09-13T22:33:34.237Z,4.22
2022-09-13T22:36:02.205Z,4.63
2022-09-13T22:38:25.881Z,4.47
2022-09-13T22:40:56.703Z,4.35
2022-09-13T22:43:21.639Z,4.55
2022-09-13T22:45:45.199Z,4.05
2022-09-13T22:48:12.384Z,3.42
2022-09-13T22:50:36.111Z,3.92
2022-09-13T22:52:59.659Z,3.70
2022-09-13T22:55:23.180Z,3.95
2022-09-13T22:57:46.779Z,3.85
2022-09-13T23:00:14.211Z,3.90
2022-09-13T23:02:37.849Z,3.85
2022-09-13T23:05:01.382Z,3.95
2022-09-13T23:07:25.362Z,3.58
2022-09-13T23:09:49.230Z,3.35
2022-09-13T23:12:12.790Z,3.53
2022-09-13T23:14:36.351Z,3.10
2022-09-13T23:17:01.392Z,3.10
2022-09-13T23:19:28.156Z,3.25
2022-09-13T23:21:54.109Z,3.45
2022-09-13T23:24:19.774Z,3.35
2022-09-13T23:26:44.742Z,3.60
2022-09-13T23:29:08.306Z,3.45
2022-09-13T23:31:34.686Z,3.50
2022-09-13T23:34:02.784Z,3.20
2022-09-13T23:36:29.125Z,3.60
2022-09-13T23:38:55.465Z,3.72
2022-09-13T23:41:19.683Z,3.22
2022-09-13T23:43:43.686Z,3.35
2022-09-13T23:46:07.929Z,3.40
2022-09-13T23:48:31.891Z,3.50
2022-09-13T23:51:05.212Z,3.42
2022-09-13T23:53:28.939Z,3.72
2022-09-13T23:55:52.432Z,3.15
2022-09-13T23:58:16.023Z,3.20
